Athlestan, Iowa
Current Conditions -  °F | °C
As of 11:35 AM on Wednesday 26 Nov 2014 (Local Time) from KCSQ Reporting Station
Unknown Precip Unknown Precip  
Wind Chill: 20°   Ceiling: 300
Heat Index: 30°   Visibility: 1.2mi
Dew Point: 30°   Wind: 14mph
Humidity: 100%   Direction: 350°N
Pressure: 29.94"   Gusts: NA
Location:  40.6485°N, 94.5286°W
Report Text: KCSQ 261735Z AUTO 35012KT 1 1/4SM -UP OVC003 M01/M01 A2994 RMK AO2
Loading
Personal Weather Stations






























Interactive Weather Map New forecast layout! Learn more

10-Day Weather Forecast

Advertisements
Track Severe Weather on mobile